createdAt,value
2023-04-16T00:04:32.396Z,24.17
2023-04-16T00:09:34.683Z,23.65
2023-04-16T00:14:36.827Z,25.45
2023-04-16T00:19:38.971Z,25.70
2023-04-16T00:24:41.600Z,24.45
2023-04-16T00:29:43.703Z,25.30
2023-04-16T00:34:46.046Z,26.08
2023-04-16T00:39:48.225Z,24.37
2023-04-16T00:44:50.392Z,26.13
2023-04-16T00:49:52.772Z,27.10
2023-04-16T00:54:54.978Z,24.90
2023-04-16T00:59:58.240Z,25.60
2023-04-16T01:05:01.461Z,27.17
2023-04-16T01:10:04.205Z,26.50
2023-04-16T01:15:07.096Z,25.02
2023-04-16T01:20:09.609Z,25.75
2023-04-16T01:25:15.807Z,24.65
2023-04-16T01:30:18.101Z,24.17
2023-04-16T01:35:20.266Z,24.20
2023-04-16T01:40:22.683Z,22.85
2023-04-16T01:45:25.546Z,23.12
2023-04-16T01:50:28.469Z,21.65
2023-04-16T01:55:32.374Z,22.95
2023-04-16T02:00:34.616Z,22.37
2023-04-16T02:05:36.792Z,21.48
2023-04-16T02:10:39.102Z,22.23
2023-04-16T02:15:49.215Z,21.60
2023-04-16T02:20:51.350Z,21.02
2023-04-16T02:25:53.617Z,20.43
2023-04-16T02:30:55.938Z,21.70
2023-04-16T02:36:00.494Z,22.35
2023-04-16T02:41:02.955Z,18.98
2023-04-16T02:46:05.406Z,20.77
2023-04-16T02:51:07.789Z,21.33
2023-04-16T02:56:09.965Z,20.67
2023-04-16T03:01:12.179Z,23.00
2023-04-16T03:06:14.420Z,24.45
2023-04-16T03:11:16.877Z,26.90
2023-04-16T03:16:19.250Z,25.13
2023-04-16T03:21:21.497Z,27.98
2023-04-16T03:26:23.735Z,24.23
2023-04-16T03:31:26.138Z,25.70
2023-04-16T03:36:28.273Z,31.25
2023-04-16T03:41:31.070Z,25.30
2023-04-16T03:46:33.280Z,24.65
2023-04-16T03:51:35.558Z,23.42
2023-04-16T03:56:37.726Z,23.33
2023-04-16T04:01:39.909Z,22.10
2023-04-16T04:06:42.222Z,21.23
2023-04-16T04:11:44.582Z,20.73
2023-04-16T04:16:46.973Z,21.30
2023-04-16T04:21:49.190Z,20.58
2023-04-16T04:26:51.370Z,22.83
2023-04-16T04:31:55.266Z,24.07
2023-04-16T04:36:57.658Z,20.80
2023-04-16T04:41:59.891Z,20.83
2023-04-16T04:47:03.168Z,21.23
2023-04-16T04:52:06.179Z,21.62
2023-04-16T04:57:08.822Z,19.20
2023-04-16T05:02:12.275Z,19.55
2023-04-16T05:07:14.496Z,19.42
2023-04-16T05:12:16.692Z,17.92
2023-04-16T05:17:19.347Z,18.75
2023-04-16T05:22:21.662Z,17.07
2023-04-16T05:27:23.873Z,16.37
2023-04-16T05:32:26.464Z,15.18
2023-04-16T05:37:28.744Z,15.75
2023-04-16T05:42:31.143Z,17.17
2023-04-16T05:47:33.326Z,14.87
2023-04-16T05:52:35.622Z,14.07
2023-04-16T05:57:37.786Z,14.75
2023-04-16T06:02:40.435Z,14.73
2023-04-16T06:07:42.708Z,19.48
2023-04-16T06:12:47.358Z,15.50
2023-04-16T06:17:50.075Z,19.17
2023-04-16T06:22:52.323Z,15.40
2023-04-16T06:27:54.865Z,14.85
2023-04-16T06:32:57.040Z,16.08
2023-04-16T06:37:59.220Z,14.43
2023-04-16T06:43:06.732Z,14.27
2023-04-16T06:48:09.011Z,14.38
2023-04-16T06:53:11.188Z,12.82
2023-04-16T06:58:13.371Z,13.77
2023-04-16T07:03:15.906Z,10.73
2023-04-16T07:08:18.249Z,11.57
2023-04-16T07:13:20.894Z,12.15
2023-04-16T07:18:23.121Z,11.45
2023-04-16T07:23:28.078Z,10.90
2023-04-16T07:28:30.457Z,9.93
2023-04-16T07:33:33.029Z,10.85
2023-04-16T07:38:37.441Z,9.18
2023-04-16T07:43:39.711Z,9.23
2023-04-16T07:48:42.713Z,9.48
2023-04-16T07:53:47.971Z,9.03
2023-04-16T07:58:50.166Z,8.38
2023-04-16T08:03:52.458Z,12.50
2023-04-16T08:08:54.740Z,8.90
2023-04-16T08:13:57.075Z,7.93
2023-04-16T08:19:21.668Z,8.17
2023-04-16T08:24:23.858Z,8.15
2023-04-16T08:29:26.485Z,7.72
2023-04-16T08:34:29.011Z,8.03
2023-04-16T08:39:33.797Z,7.57
2023-04-16T08:44:44.293Z,8.57
2023-04-16T08:49:59.814Z,9.52
2023-04-16T08:55:12.619Z,9.95
2023-04-16T09:00:16.687Z,8.90
2023-04-16T09:05:20.810Z,9.25
2023-04-16T09:10:24.786Z,7.67
2023-04-16T09:15:26.950Z,8.75
2023-04-16T09:20:29.206Z,8.00
2023-04-16T09:25:35.089Z,8.60
2023-04-16T09:30:37.668Z,9.50
2023-04-16T09:35:46.693Z,9.37
2023-04-16T09:41:07.237Z,8.10
2023-04-16T09:46:12.886Z,8.95
2023-04-16T09:51:15.101Z,8.60
2023-04-16T09:56:17.352Z,8.20
2023-04-16T10:01:19.862Z,7.80
2023-04-16T10:06:25.712Z,8.15
2023-04-16T10:11:28.371Z,8.60
2023-04-16T10:16:31.212Z,8.17
2023-04-16T10:21:34.462Z,7.62
2023-04-16T10:26:37.214Z,8.30
2023-04-16T10:31:40.838Z,7.68
2023-04-16T10:36:43.462Z,7.85
2023-04-16T10:41:46.149Z,8.00
2023-04-16T10:46:51.507Z,7.97
2023-04-16T10:52:01.693Z,9.67
2023-04-16T10:57:06.393Z,7.75
2023-04-16T11:02:13.810Z,8.18
2023-04-16T11:07:19.058Z,7.43
2023-04-16T11:12:24.089Z,6.70
2023-04-16T11:17:30.896Z,6.90
2023-04-16T11:22:36.661Z,7.45
2023-04-16T11:27:39.037Z,7.37
2023-04-16T11:32:41.513Z,7.13
2023-04-16T11:37:44.555Z,7.00
2023-04-16T11:42:46.743Z,7.10
2023-04-16T11:47:55.464Z,7.12
2023-04-16T11:53:04.432Z,6.45
2023-04-16T11:58:16.495Z,6.70
2023-04-16T12:03:19.638Z,6.78
2023-04-16T12:08:31.796Z,6.70
2023-04-16T12:13:40.015Z,7.10
2023-04-16T12:19:03.892Z,6.50
2023-04-16T12:24:07.522Z,7.43
2023-04-16T12:29:19.698Z,7.30
2023-04-16T12:34:22.495Z,6.60
2023-04-16T12:39:45.511Z,7.10
2023-04-16T12:44:49.112Z,7.28
2023-04-16T12:49:51.257Z,6.70
2023-04-16T12:54:53.536Z,6.57
2023-04-16T12:59:58.139Z,7.10
2023-04-16T13:05:00.307Z,6.80
2023-04-16T13:10:02.875Z,6.47
2023-04-16T13:15:05.445Z,7.50
2023-04-16T13:20:08.002Z,7.55
2023-04-16T13:25:10.265Z,7.20
2023-04-16T13:30:12.838Z,6.22
2023-04-16T13:35:15.133Z,5.95
2023-04-16T13:40:17.287Z,6.43
2023-04-16T13:45:20.706Z,5.45
2023-04-16T13:50:23.381Z,6.87
2023-04-16T13:55:26.015Z,6.07
2023-04-16T14:00:28.277Z,5.60
2023-04-16T14:05:30.562Z,6.50
2023-04-16T14:10:33.221Z,6.20
2023-04-16T14:15:35.420Z,6.93
2023-04-16T14:20:39.915Z,6.30
2023-04-16T14:25:42.169Z,7.95
2023-04-16T14:30:44.384Z,6.10
2023-04-16T14:35:46.664Z,5.80
2023-04-16T14:40:49.127Z,5.27
2023-04-16T14:45:51.323Z,5.85
2023-04-16T14:50:53.813Z,5.60
2023-04-16T14:55:59.036Z,5.40
2023-04-16T15:01:01.354Z,5.72
2023-04-16T15:06:03.679Z,9.00
2023-04-16T15:11:06.061Z,5.30
2023-04-16T15:16:08.218Z,5.30
2023-04-16T15:21:12.723Z,6.03
2023-04-16T15:26:15.340Z,3.97
2023-04-16T15:31:17.847Z,5.73
2023-04-16T15:36:20.888Z,5.90
2023-04-16T15:41:23.277Z,5.93
2023-04-16T15:46:25.820Z,6.10
2023-04-16T15:51:29.471Z,5.55
2023-04-16T15:56:31.979Z,6.00
2023-04-16T16:01:34.292Z,5.97
2023-04-16T16:06:38.704Z,5.95
2023-04-16T16:11:41.719Z,5.10
2023-04-16T16:16:46.431Z,6.75
2023-04-16T16:21:48.619Z,6.07
2023-04-16T16:26:50.971Z,6.20
2023-04-16T16:31:53.220Z,5.32
2023-04-16T16:36:55.525Z,6.37
2023-04-16T16:41:58.220Z,5.70
2023-04-16T16:47:00.527Z,6.03
2023-04-16T16:52:02.895Z,5.40
2023-04-16T16:57:05.150Z,5.25
2023-04-16T17:02:07.585Z,5.43
2023-04-16T17:07:09.937Z,5.95
2023-04-16T17:12:12.105Z,6.87
2023-04-16T17:17:14.270Z,7.57
2023-04-16T17:22:16.430Z,6.93
2023-04-16T17:27:18.635Z,6.50
2023-04-16T17:32:21.133Z,7.55
2023-04-16T17:37:23.628Z,6.60
2023-04-16T17:42:25.889Z,6.75
2023-04-16T17:47:28.224Z,8.55
2023-04-16T17:52:30.639Z,7.07
2023-04-16T17:57:32.825Z,7.47
2023-04-16T18:02:35.427Z,7.60
2023-04-16T18:07:39.063Z,7.75
2023-04-16T18:12:41.287Z,7.93
2023-04-16T18:17:43.533Z,8.13
2023-04-16T18:22:46.233Z,8.65
2023-04-16T18:27:49.675Z,7.97
2023-04-16T18:33:16.425Z,8.02
2023-04-16T18:38:13.959Z,8.93
2023-04-16T18:43:16.244Z,8.10
2023-04-16T18:48:18.428Z,9.10
2023-04-16T18:53:21.340Z,8.20
2023-04-16T18:58:24.068Z,7.53
2023-04-16T19:03:28.490Z,8.02
2023-04-16T19:08:30.856Z,7.82
2023-04-16T19:13:33.205Z,8.65
2023-04-16T19:18:35.585Z,8.50
2023-04-16T19:23:37.982Z,8.70
2023-04-16T19:28:40.312Z,8.30
2023-04-16T19:33:42.425Z,8.98
2023-04-16T19:38:44.565Z,8.00
2023-04-16T19:43:46.718Z,8.03
2023-04-16T19:48:48.883Z,9.48
2023-04-16T19:53:51.846Z,8.40
2023-04-16T19:58:55.544Z,8.20
2023-04-16T20:03:57.809Z,7.70
2023-04-16T20:09:00.141Z,7.70
2023-04-16T20:14:02.342Z,11.88
2023-04-16T20:19:07.150Z,12.00
2023-04-16T20:24:10.852Z,8.60
2023-04-16T20:29:13.085Z,8.32
2023-04-16T20:34:15.390Z,7.30
2023-04-16T20:39:20.417Z,8.45
2023-04-16T20:44:40.347Z,7.40
2023-04-16T20:49:49.432Z,7.03
2023-04-16T20:54:52.424Z,7.18
2023-04-16T20:59:54.699Z,6.53
2023-04-16T21:04:56.953Z,7.28
2023-04-16T21:10:00.672Z,8.52
2023-04-16T21:15:04.210Z,7.57
2023-04-16T21:20:10.635Z,7.32
2023-04-16T21:25:12.832Z,8.13
2023-04-16T21:30:15.388Z,8.77
2023-04-16T21:35:17.647Z,6.97
2023-04-16T21:40:19.817Z,8.85
2023-04-16T21:45:21.978Z,8.02
2023-04-16T21:50:24.236Z,8.03
2023-04-16T21:55:26.408Z,7.07
2023-04-16T22:00:28.692Z,7.10
2023-04-16T22:05:31.820Z,7.93
2023-04-16T22:10:34.148Z,7.15
2023-04-16T22:15:36.336Z,7.43
2023-04-16T22:20:39.346Z,7.45
2023-04-16T22:25:41.813Z,6.55
2023-04-16T22:30:44.083Z,6.20
2023-04-16T22:35:46.430Z,7.03
2023-04-16T22:40:49.034Z,7.37
2023-04-16T22:46:01.157Z,7.55
2023-04-16T22:51:04.452Z,7.37
2023-04-16T22:56:06.998Z,7.20
2023-04-16T23:01:09.215Z,8.75
2023-04-16T23:06:11.972Z,6.53
2023-04-16T23:11:14.163Z,6.70
2023-04-16T23:16:16.389Z,8.20
2023-04-16T23:21:18.761Z,7.43
2023-04-16T23:26:20.917Z,6.75
2023-04-16T23:31:23.147Z,7.80
2023-04-16T23:36:26.421Z,6.40
2023-04-16T23:41:28.671Z,6.70
2023-04-16T23:46:31.050Z,7.15
2023-04-16T23:51:33.311Z,6.95
2023-04-16T23:56:35.643Z,7.07
